sensor_id;sensor_type;location;lat;lon;timestamp;noise_LAeq;noise_LA_min;noise_LA_max;noise_LA01;noise_LA95
37279;Laerm;7458;49.002;8.472;2023-01-06T00:01:14;57.48;40.89;73.48;;
37279;Laerm;7458;49.002;8.472;2023-01-06T00:03:40;56.92;41.82;71.24;;
37279;Laerm;7458;49.002;8.472;2023-01-06T00:06:10;57.61;42.03;73.54;;
37279;Laerm;7458;49.002;8.472;2023-01-06T00:08:37;57.16;41.38;73.06;;
37279;Laerm;7458;49.002;8.472;2023-01-06T00:11:09;57.78;41.06;73.21;;
37279;Laerm;7458;49.002;8.472;2023-01-06T00:13:36;55.76;40.33;73.17;;
37279;Laerm;7458;49.002;8.472;2023-01-06T00:16:14;57.65;40.43;73.18;;
37279;Laerm;7458;49.002;8.472;2023-01-06T00:18:40;56.85;40.33;73.03;;
37279;Laerm;7458;49.002;8.472;2023-01-06T00:21:07;57.69;41.22;73.21;;
37279;Laerm;7458;49.002;8.472;2023-01-06T00:23:35;57.78;41.89;73.33;;
37279;Laerm;7458;49.002;8.472;2023-01-06T00:26:02;58.07;41.38;73.50;;
37279;Laerm;7458;49.002;8.472;2023-01-06T00:28:31;57.38;40.43;73.43;;
37279;Laerm;7458;49.002;8.472;2023-01-06T00:30:57;57.59;40.03;73.45;;
37279;Laerm;7458;49.002;8.472;2023-01-06T00:33:24;57.18;40.23;73.17;;
37279;Laerm;7458;49.002;8.472;2023-01-06T00:35:50;43.88;39.08;51.93;;
37279;Laerm;7458;49.002;8.472;2023-01-06T00:38:16;43.94;39.34;51.64;;
37279;Laerm;7458;49.002;8.472;2023-01-06T00:40:42;57.29;38.67;73.20;;
37279;Laerm;7458;49.002;8.472;2023-01-06T00:43:07;54.42;38.67;73.42;;
37279;Laerm;7458;49.002;8.472;2023-01-06T00:45:33;57.82;39.34;73.31;;
37279;Laerm;7458;49.002;8.472;2023-01-06T00:47:59;56.88;39.46;73.46;;
37279;Laerm;7458;49.002;8.472;2023-01-06T00:50:25;44.54;40.33;51.72;;
37279;Laerm;7458;49.002;8.472;2023-01-06T00:52:50;57.59;38.37;73.30;;
37279;Laerm;7458;49.002;8.472;2023-01-06T00:55:16;57.06;38.95;73.37;;
37279;Laerm;7458;49.002;8.472;2023-01-06T00:57:42;57.72;38.81;73.27;;
37279;Laerm;7458;49.002;8.472;2023-01-06T01:00:09;57.37;38.99;73.13;;
37279;Laerm;7458;49.002;8.472;2023-01-06T01:02:34;57.64;38.81;73.73;;
37279;Laerm;7458;49.002;8.472;2023-01-06T01:05:00;57.74;39.46;73.33;;
37279;Laerm;7458;49.002;8.472;2023-01-06T01:07:26;57.40;40.33;73.19;;
37279;Laerm;7458;49.002;8.472;2023-01-06T01:09:52;56.33;40.03;73.10;;
37279;Laerm;7458;49.002;8.472;2023-01-06T01:12:18;57.53;39.11;73.32;;
37279;Laerm;7458;49.002;8.472;2023-01-06T01:14:53;57.63;39.58;73.08;;
37279;Laerm;7458;49.002;8.472;2023-01-06T01:17:23;57.54;39.08;73.58;;
37279;Laerm;7458;49.002;8.472;2023-01-06T01:19:51;43.71;38.21;51.36;;
37279;Laerm;7458;49.002;8.472;2023-01-06T01:22:19;56.24;39.08;73.41;;
37279;Laerm;7458;49.002;8.472;2023-01-06T01:24:45;57.63;39.21;73.57;;
37279;Laerm;7458;49.002;8.472;2023-01-06T01:27:11;56.96;40.53;73.51;;
37279;Laerm;7458;49.002;8.472;2023-01-06T01:29:37;58.21;39.58;73.41;;
37279;Laerm;7458;49.002;8.472;2023-01-06T01:32:03;57.87;38.95;73.25;;
37279;Laerm;7458;49.002;8.472;2023-01-06T01:34:29;57.11;39.58;73.73;;
37279;Laerm;7458;49.002;8.472;2023-01-06T01:36:54;57.58;39.46;73.50;;
37279;Laerm;7458;49.002;8.472;2023-01-06T01:39:25;56.97;40.53;73.62;;
37279;Laerm;7458;49.002;8.472;2023-01-06T01:41:53;58.06;39.70;73.31;;
37279;Laerm;7458;49.002;8.472;2023-01-06T01:49:55;57.28;40.03;73.46;;
37279;Laerm;7458;49.002;8.472;2023-01-06T01:52:23;57.97;40.33;73.30;;
37279;Laerm;7458;49.002;8.472;2023-01-06T01:54:54;52.35;38.81;72.71;;
37279;Laerm;7458;49.002;8.472;2023-01-06T01:57:35;57.35;38.81;73.69;;
37279;Laerm;7458;49.002;8.472;2023-01-06T02:00:07;57.35;39.58;73.62;;
37279;Laerm;7458;49.002;8.472;2023-01-06T02:02:33;57.89;39.08;73.59;;
37279;Laerm;7458;49.002;8.472;2023-01-06T02:05:00;57.97;40.98;73.79;;
37279;Laerm;7458;49.002;8.472;2023-01-06T02:07:27;57.86;40.98;73.42;;
37279;Laerm;7458;49.002;8.472;2023-01-06T02:10:15;57.49;40.89;73.57;;
37279;Laerm;7458;49.002;8.472;2023-01-06T02:12:43;57.47;40.13;73.51;;
37279;Laerm;7458;49.002;8.472;2023-01-06T02:15:24;53.95;40.43;73.58;;
37279;Laerm;7458;49.002;8.472;2023-01-06T02:33:04;44.79;40.43;52.54;;
37279;Laerm;7458;49.002;8.472;2023-01-06T02:36:04;56.72;40.43;73.94;;
37279;Laerm;7458;49.002;8.472;2023-01-06T02:48:09;54.79;38.95;73.69;;
37279;Laerm;7458;49.002;8.472;2023-01-06T02:51:00;55.14;40.33;73.58;;
37279;Laerm;7458;49.002;8.472;2023-01-06T02:56:07;56.94;39.21;73.70;;
37279;Laerm;7458;49.002;8.472;2023-01-06T02:59:02;56.74;39.34;73.84;;
37279;Laerm;7458;49.002;8.472;2023-01-06T03:01:40;54.20;39.21;73.35;;
37279;Laerm;7458;49.002;8.472;2023-01-06T03:04:15;48.22;40.33;73.40;;
37279;Laerm;7458;49.002;8.472;2023-01-06T03:06:47;43.90;38.37;51.25;;
37279;Laerm;7458;49.002;8.472;2023-01-06T03:09:18;56.75;38.67;73.43;;
37279;Laerm;7458;49.002;8.472;2023-01-06T03:11:49;57.92;39.81;73.57;;
37279;Laerm;7458;49.002;8.472;2023-01-06T03:14:39;43.91;38.67;51.29;;
37279;Laerm;7458;49.002;8.472;2023-01-06T03:17:07;56.64;39.21;73.42;;
37279;Laerm;7458;49.002;8.472;2023-01-06T03:19:33;57.96;39.21;73.74;;
37279;Laerm;7458;49.002;8.472;2023-01-06T03:22:01;57.80;38.67;73.37;;
37279;Laerm;7458;49.002;8.472;2023-01-06T03:24:28;58.03;39.21;73.71;;
37279;Laerm;7458;49.002;8.472;2023-01-06T03:26:54;58.16;37.70;73.64;;
37279;Laerm;7458;49.002;8.472;2023-01-06T03:29:21;57.65;38.05;73.65;;
37279;Laerm;7458;49.002;8.472;2023-01-06T03:32:22;54.85;37.70;73.52;;
37279;Laerm;7458;49.002;8.472;2023-01-06T03:38:36;55.83;39.34;73.82;;
37279;Laerm;7458;49.002;8.472;2023-01-06T03:41:32;43.39;37.88;51.14;;
37279;Laerm;7458;49.002;8.472;2023-01-06T03:44:52;43.58;38.52;50.97;;
37279;Laerm;7458;49.002;8.472;2023-01-06T03:47:36;43.67;38.81;51.11;;
37279;Laerm;7458;49.002;8.472;2023-01-06T03:50:39;43.47;38.67;51.46;;
37279;Laerm;7458;49.002;8.472;2023-01-06T03:55:58;44.42;39.58;51.85;;
37279;Laerm;7458;49.002;8.472;2023-01-06T03:58:29;44.18;39.70;51.47;;
37279;Laerm;7458;49.002;8.472;2023-01-06T04:00:56;56.87;40.13;73.13;;
37279;Laerm;7458;49.002;8.472;2023-01-06T04:03:24;44.15;38.21;51.50;;
37279;Laerm;7458;49.002;8.472;2023-01-06T04:05:51;44.24;40.27;51.62;;
37279;Laerm;7458;49.002;8.472;2023-01-06T04:08:17;46.11;40.43;61.18;;
37279;Laerm;7458;49.002;8.472;2023-01-06T04:10:43;44.20;39.92;52.60;;
37279;Laerm;7458;49.002;8.472;2023-01-06T04:13:09;56.33;39.70;73.19;;
37279;Laerm;7458;49.002;8.472;2023-01-06T04:15:35;44.21;40.03;51.58;;
37279;Laerm;7458;49.002;8.472;2023-01-06T04:18:01;43.94;39.70;51.26;;
37279;Laerm;7458;49.002;8.472;2023-01-06T04:20:29;50.58;39.46;68.89;;
37279;Laerm;7458;49.002;8.472;2023-01-06T04:22:56;45.06;40.54;55.74;;
37279;Laerm;7458;49.002;8.472;2023-01-06T04:25:23;44.33;39.92;51.36;;
37279;Laerm;7458;49.002;8.472;2023-01-06T04:27:49;45.90;39.08;57.76;;
37279;Laerm;7458;49.002;8.472;2023-01-06T04:30:15;44.04;40.23;51.88;;
37279;Laerm;7458;49.002;8.472;2023-01-06T04:32:42;44.17;39.92;51.17;;
37279;Laerm;7458;49.002;8.472;2023-01-06T04:35:08;43.87;38.95;51.73;;
37279;Laerm;7458;49.002;8.472;2023-01-06T04:37:35;44.42;39.46;54.65;;
37279;Laerm;7458;49.002;8.472;2023-01-06T04:40:01;55.81;39.70;73.23;;
37279;Laerm;7458;49.002;8.472;2023-01-06T04:42:27;44.73;40.43;52.33;;
37279;Laerm;7458;49.002;8.472;2023-01-06T04:44:52;45.92;40.33;63.71;;
37279;Laerm;7458;49.002;8.472;2023-01-06T04:47:18;57.79;39.70;70.48;;
37279;Laerm;7458;49.002;8.472;2023-01-06T04:49:47;44.91;39.21;64.84;;
37279;Laerm;7458;49.002;8.472;2023-01-06T04:52:13;44.34;39.70;51.37;;
37279;Laerm;7458;49.002;8.472;2023-01-06T04:54:40;44.36;40.43;51.29;;
37279;Laerm;7458;49.002;8.472;2023-01-06T04:57:05;54.31;41.14;72.98;;
37279;Laerm;7458;49.002;8.472;2023-01-06T04:59:31;47.81;39.70;72.40;;
37279;Laerm;7458;49.002;8.472;2023-01-06T05:01:57;44.67;39.70;54.56;;
37279;Laerm;7458;49.002;8.472;2023-01-06T05:04:22;47.20;40.89;74.85;;
37279;Laerm;7458;49.002;8.472;2023-01-06T05:06:48;45.08;41.22;51.32;;
37279;Laerm;7458;49.002;8.472;2023-01-06T05:09:14;45.33;40.80;58.01;;
37279;Laerm;7458;49.002;8.472;2023-01-06T05:11:39;44.75;40.23;61.62;;
37279;Laerm;7458;49.002;8.472;2023-01-06T05:14:05;46.23;41.06;64.02;;
37279;Laerm;7458;49.002;8.472;2023-01-06T05:16:34;44.80;40.98;51.99;;
37279;Laerm;7458;49.002;8.472;2023-01-06T05:19:00;45.37;41.30;52.96;;
37279;Laerm;7458;49.002;8.472;2023-01-06T05:21:28;44.68;41.14;51.53;;
37279;Laerm;7458;49.002;8.472;2023-01-06T05:23:55;48.21;41.30;65.90;;
37279;Laerm;7458;49.002;8.472;2023-01-06T05:26:24;45.42;40.80;60.72;;
37279;Laerm;7458;49.002;8.472;2023-01-06T05:28:50;45.70;40.43;63.30;;
37279;Laerm;7458;49.002;8.472;2023-01-06T05:31:16;45.65;41.30;53.38;;
37279;Laerm;7458;49.002;8.472;2023-01-06T05:33:42;45.91;42.03;59.13;;
37279;Laerm;7458;49.002;8.472;2023-01-06T05:36:14;45.22;40.43;52.00;;
37279;Laerm;7458;49.002;8.472;2023-01-06T05:38:41;45.23;40.43;55.37;;
37279;Laerm;7458;49.002;8.472;2023-01-06T05:41:07;51.81;39.92;69.74;;
37279;Laerm;7458;49.002;8.472;2023-01-06T05:43:35;44.79;41.55;51.85;;
37279;Laerm;7458;49.002;8.472;2023-01-06T05:46:10;45.43;42.09;55.37;;
37279;Laerm;7458;49.002;8.472;2023-01-06T05:48:37;44.61;40.98;57.82;;
37279;Laerm;7458;49.002;8.472;2023-01-06T05:51:08;45.31;41.30;52.19;;
37279;Laerm;7458;49.002;8.472;2023-01-06T05:53:39;45.00;41.30;52.09;;
37279;Laerm;7458;49.002;8.472;2023-01-06T05:56:07;45.16;41.22;55.60;;
37279;Laerm;7458;49.002;8.472;2023-01-06T05:58:35;45.51;40.98;64.93;;
37279;Laerm;7458;49.002;8.472;2023-01-06T06:01:03;44.93;40.89;51.50;;
37279;Laerm;7458;49.002;8.472;2023-01-06T06:03:30;47.59;41.38;74.50;;
37279;Laerm;7458;49.002;8.472;2023-01-06T06:06:02;45.45;40.53;67.32;;
37279;Laerm;7458;49.002;8.472;2023-01-06T06:08:29;45.59;41.82;51.49;;
37279;Laerm;7458;49.002;8.472;2023-01-06T06:10:54;45.36;41.53;51.50;;
37279;Laerm;7458;49.002;8.472;2023-01-06T06:13:20;50.75;41.30;78.46;;
37279;Laerm;7458;49.002;8.472;2023-01-06T06:15:46;45.20;40.98;53.39;;
37279;Laerm;7458;49.002;8.472;2023-01-06T06:18:11;45.18;42.03;51.84;;
37279;Laerm;7458;49.002;8.472;2023-01-06T06:20:37;45.95;41.82;66.12;;
37279;Laerm;7458;49.002;8.472;2023-01-06T06:23:03;45.25;42.09;52.72;;
37279;Laerm;7458;49.002;8.472;2023-01-06T06:25:28;45.36;40.80;59.34;;
37279;Laerm;7458;49.002;8.472;2023-01-06T06:27:58;45.53;41.89;56.68;;
37279;Laerm;7458;49.002;8.472;2023-01-06T06:30:24;46.82;42.29;55.63;;
37279;Laerm;7458;49.002;8.472;2023-01-06T06:32:50;46.38;41.96;58.99;;
37279;Laerm;7458;49.002;8.472;2023-01-06T06:35:16;49.00;41.68;64.86;;
37279;Laerm;7458;49.002;8.472;2023-01-06T06:37:41;51.86;41.88;71.17;;
37279;Laerm;7458;49.002;8.472;2023-01-06T06:40:08;57.84;42.47;73.50;;
37279;Laerm;7458;49.002;8.472;2023-01-06T06:42:34;46.38;42.59;66.83;;
37279;Laerm;7458;49.002;8.472;2023-01-06T06:44:59;45.69;42.41;51.70;;
37279;Laerm;7458;49.002;8.472;2023-01-06T06:47:25;48.86;42.82;67.33;;
37279;Laerm;7458;49.002;8.472;2023-01-06T06:49:51;46.85;42.71;67.69;;
37279;Laerm;7458;49.002;8.472;2023-01-06T06:52:16;45.80;41.96;58.04;;
37279;Laerm;7458;49.002;8.472;2023-01-06T06:54:42;45.53;42.03;56.84;;
37279;Laerm;7458;49.002;8.472;2023-01-06T06:57:08;50.23;41.75;75.85;;
37279;Laerm;7458;49.002;8.472;2023-01-06T06:59:33;46.36;42.35;53.48;;
37279;Laerm;7458;49.002;8.472;2023-01-06T07:01:59;45.94;42.35;61.56;;
37279;Laerm;7458;49.002;8.472;2023-01-06T07:04:25;47.30;42.03;67.68;;
37279;Laerm;7458;49.002;8.472;2023-01-06T07:06:51;46.18;42.29;69.93;;
37279;Laerm;7458;49.002;8.472;2023-01-06T07:09:17;47.45;41.96;63.21;;
37279;Laerm;7458;49.002;8.472;2023-01-06T07:11:42;49.17;42.22;68.78;;
37279;Laerm;7458;49.002;8.472;2023-01-06T07:14:08;52.55;43.19;68.34;;
37279;Laerm;7458;49.002;8.472;2023-01-06T07:16:34;46.65;42.76;61.00;;
37279;Laerm;7458;49.002;8.472;2023-01-06T07:18:59;50.11;42.90;76.16;;
37279;Laerm;7458;49.002;8.472;2023-01-06T07:21:25;48.62;43.49;63.04;;
37279;Laerm;7458;49.002;8.472;2023-01-06T07:23:51;46.35;42.82;57.79;;
37279;Laerm;7458;49.002;8.472;2023-01-06T07:26:16;50.12;42.29;67.25;;
37279;Laerm;7458;49.002;8.472;2023-01-06T07:28:42;53.38;42.35;72.29;;
37279;Laerm;7458;49.002;8.472;2023-01-06T07:31:08;52.44;43.42;71.85;;
37279;Laerm;7458;49.002;8.472;2023-01-06T07:33:33;47.01;42.59;56.16;;
37279;Laerm;7458;49.002;8.472;2023-01-06T07:35:59;46.65;43.49;58.73;;
37279;Laerm;7458;49.002;8.472;2023-01-06T07:38:25;46.48;43.09;56.38;;
37279;Laerm;7458;49.002;8.472;2023-01-06T07:40:51;53.04;43.09;68.18;;
37279;Laerm;7458;49.002;8.472;2023-01-06T07:43:17;50.18;43.49;63.66;;
37279;Laerm;7458;49.002;8.472;2023-01-06T07:45:46;47.33;42.98;67.28;;
37279;Laerm;7458;49.002;8.472;2023-01-06T07:48:12;53.25;43.04;70.81;;
37279;Laerm;7458;49.002;8.472;2023-01-06T07:50:38;50.86;43.29;65.64;;
37279;Laerm;7458;49.002;8.472;2023-01-06T07:53:03;47.28;42.93;61.38;;
37279;Laerm;7458;49.002;8.472;2023-01-06T07:55:29;48.08;43.39;63.36;;
37279;Laerm;7458;49.002;8.472;2023-01-06T07:57:55;47.42;42.93;62.97;;
37279;Laerm;7458;49.002;8.472;2023-01-06T08:00:23;47.12;43.09;59.12;;
37279;Laerm;7458;49.002;8.472;2023-01-06T08:02:48;49.60;43.14;65.62;;
37279;Laerm;7458;49.002;8.472;2023-01-06T08:05:14;51.09;43.72;68.30;;
37279;Laerm;7458;49.002;8.472;2023-01-06T08:07:40;51.68;43.44;71.07;;
37279;Laerm;7458;49.002;8.472;2023-01-06T08:10:06;51.45;43.29;73.48;;
37279;Laerm;7458;49.002;8.472;2023-01-06T08:12:32;46.17;41.89;55.75;;
37279;Laerm;7458;49.002;8.472;2023-01-06T08:14:58;52.07;43.44;72.15;;
37279;Laerm;7458;49.002;8.472;2023-01-06T08:17:24;50.52;43.14;71.21;;
37279;Laerm;7458;49.002;8.472;2023-01-06T08:19:49;51.03;43.24;74.98;;
37279;Laerm;7458;49.002;8.472;2023-01-06T08:22:15;48.73;43.44;66.18;;
37279;Laerm;7458;49.002;8.472;2023-01-06T08:24:41;52.06;43.49;68.73;;
37279;Laerm;7458;49.002;8.472;2023-01-06T08:27:06;47.64;43.09;63.56;;
37279;Laerm;7458;49.002;8.472;2023-01-06T08:29:32;47.57;43.29;58.94;;
37279;Laerm;7458;49.002;8.472;2023-01-06T08:31:58;53.39;43.54;79.82;;
37279;Laerm;7458;49.002;8.472;2023-01-06T08:34:23;54.17;43.72;76.72;;
37279;Laerm;7458;49.002;8.472;2023-01-06T08:36:49;57.32;44.23;77.53;;
37279;Laerm;7458;49.002;8.472;2023-01-06T08:39:17;50.44;43.94;66.98;;
37279;Laerm;7458;49.002;8.472;2023-01-06T08:41:43;58.00;44.73;73.94;;
37279;Laerm;7458;49.002;8.472;2023-01-06T08:44:09;60.69;45.07;77.32;;
37279;Laerm;7458;49.002;8.472;2023-01-06T08:46:34;54.64;45.17;74.25;;
37279;Laerm;7458;49.002;8.472;2023-01-06T08:49:00;60.71;44.31;79.09;;
37279;Laerm;7458;49.002;8.472;2023-01-06T08:51:27;56.74;44.54;73.97;;
37279;Laerm;7458;49.002;8.472;2023-01-06T08:53:54;57.84;44.87;76.26;;
37279;Laerm;7458;49.002;8.472;2023-01-06T08:56:25;58.74;44.76;73.68;;
37279;Laerm;7458;49.002;8.472;2023-01-06T08:58:57;56.99;44.80;74.07;;
37279;Laerm;7458;49.002;8.472;2023-01-06T09:01:29;56.63;44.54;73.77;;
37279;Laerm;7458;49.002;8.472;2023-01-06T09:03:58;58.99;43.99;74.08;;
37279;Laerm;7458;49.002;8.472;2023-01-06T09:06:25;57.78;44.80;73.92;;
37279;Laerm;7458;49.002;8.472;2023-01-06T09:08:51;59.41;44.69;76.77;;
37279;Laerm;7458;49.002;8.472;2023-01-06T09:11:18;58.34;46.52;74.17;;
37279;Laerm;7458;49.002;8.472;2023-01-06T09:13:45;57.99;44.94;73.93;;
37279;Laerm;7458;49.002;8.472;2023-01-06T09:16:12;57.65;44.97;74.10;;
37279;Laerm;7458;49.002;8.472;2023-01-06T09:18:38;56.76;45.11;74.09;;
37279;Laerm;7458;49.002;8.472;2023-01-06T09:21:04;53.49;45.33;70.10;;
37279;Laerm;7458;49.002;8.472;2023-01-06T09:23:31;56.22;44.90;74.42;;
37279;Laerm;7458;49.002;8.472;2023-01-06T09:25:57;57.78;43.99;74.13;;
37279;Laerm;7458;49.002;8.472;2023-01-06T09:28:26;58.38;45.11;74.17;;
37279;Laerm;7458;49.002;8.472;2023-01-06T09:30:52;57.64;44.39;74.06;;
37279;Laerm;7458;49.002;8.472;2023-01-06T09:33:18;57.21;43.72;74.04;;
37279;Laerm;7458;49.002;8.472;2023-01-06T09:35:44;56.69;43.94;74.23;;
37279;Laerm;7458;49.002;8.472;2023-01-06T09:38:12;58.64;44.15;74.15;;
37279;Laerm;7458;49.002;8.472;2023-01-06T09:46:14;52.78;43.58;69.07;;
37279;Laerm;7458;49.002;8.472;2023-01-06T09:49:40;54.55;43.86;74.16;;
37279;Laerm;7458;49.002;8.472;2023-01-06T09:51:39;59.08;46.18;75.53;;
37279;Laerm;7458;49.002;8.472;2023-01-06T09:54:33;52.80;45.77;70.92;;
37279;Laerm;7458;49.002;8.472;2023-01-06T09:57:12;56.45;44.69;74.34;;
37279;Laerm;7458;49.002;8.472;2023-01-06T09:59:59;57.07;44.31;73.29;;
37279;Laerm;7458;49.002;8.472;2023-01-06T10:02:36;58.45;44.35;74.69;;
37279;Laerm;7458;49.002;8.472;2023-01-06T10:05:21;58.18;43.63;74.28;;
37279;Laerm;7458;49.002;8.472;2023-01-06T10:07:57;54.61;44.65;73.40;;
37279;Laerm;7458;49.002;8.472;2023-01-06T10:18:53;49.88;44.51;68.80;;
37279;Laerm;7458;49.002;8.472;2023-01-06T10:21:39;50.30;44.35;64.78;;
37279;Laerm;7458;49.002;8.472;2023-01-06T10:26:57;50.91;45.57;64.20;;
37279;Laerm;7458;49.002;8.472;2023-01-06T10:29:31;52.01;45.63;67.55;;
37279;Laerm;7458;49.002;8.472;2023-01-06T10:32:01;55.84;45.94;74.43;;
37279;Laerm;7458;49.002;8.472;2023-01-06T10:34:28;56.32;44.83;74.24;;
37279;Laerm;7458;49.002;8.472;2023-01-06T10:39:37;53.85;44.80;69.79;;
37279;Laerm;7458;49.002;8.472;2023-01-06T10:44:55;49.98;44.65;62.83;;
37279;Laerm;7458;49.002;8.472;2023-01-06T10:47:31;54.21;44.69;70.08;;
37279;Laerm;7458;49.002;8.472;2023-01-06T10:49:58;58.34;44.54;74.28;;
37279;Laerm;7458;49.002;8.472;2023-01-06T10:52:26;57.71;44.27;74.04;;
37279;Laerm;7458;49.002;8.472;2023-01-06T10:55:02;56.50;44.58;77.74;;
37279;Laerm;7458;49.002;8.472;2023-01-06T10:57:35;56.74;43.90;73.44;;
37279;Laerm;7458;49.002;8.472;2023-01-06T11:00:16;54.06;45.23;74.71;;
37279;Laerm;7458;49.002;8.472;2023-01-06T11:02:54;51.51;45.23;66.78;;
37279;Laerm;7458;49.002;8.472;2023-01-06T11:05:30;49.27;44.62;68.38;;
37279;Laerm;7458;49.002;8.472;2023-01-06T11:10:41;55.55;44.47;73.63;;
37279;Laerm;7458;49.002;8.472;2023-01-06T11:13:25;55.98;44.43;76.25;;
37279;Laerm;7458;49.002;8.472;2023-01-06T11:15:52;51.35;44.87;67.35;;
37279;Laerm;7458;49.002;8.472;2023-01-06T11:18:25;53.26;45.89;69.84;;
37279;Laerm;7458;49.002;8.472;2023-01-06T11:21:08;49.98;44.83;66.03;;
37279;Laerm;7458;49.002;8.472;2023-01-06T11:23:40;48.69;44.58;60.67;;
37279;Laerm;7458;49.002;8.472;2023-01-06T11:26:18;55.60;45.23;74.29;;
37279;Laerm;7458;49.002;8.472;2023-01-06T11:28:47;50.94;44.35;60.96;;
37279;Laerm;7458;49.002;8.472;2023-01-06T11:31:17;53.46;44.58;70.21;;
37279;Laerm;7458;49.002;8.472;2023-01-06T11:33:58;51.02;44.54;64.88;;
37279;Laerm;7458;49.002;8.472;2023-01-06T11:36:30;48.13;44.07;58.61;;
37279;Laerm;7458;49.002;8.472;2023-01-06T11:39:02;48.13;44.15;63.91;;
37279;Laerm;7458;49.002;8.472;2023-01-06T11:41:38;54.58;44.07;71.93;;
37279;Laerm;7458;49.002;8.472;2023-01-06T11:44:35;51.39;44.39;67.96;;
37279;Laerm;7458;49.002;8.472;2023-01-06T11:47:19;51.37;44.76;70.51;;
37279;Laerm;7458;49.002;8.472;2023-01-06T11:49:53;52.46;45.14;68.00;;
37279;Laerm;7458;49.002;8.472;2023-01-06T11:58:10;51.26;45.04;78.75;;
37279;Laerm;7458;49.002;8.472;2023-01-06T12:00:59;54.56;45.04;74.72;;
37279;Laerm;7458;49.002;8.472;2023-01-06T12:03:43;52.36;44.03;68.77;;
37279;Laerm;7458;49.002;8.472;2023-01-06T12:09:04;55.41;44.58;76.54;;
37279;Laerm;7458;49.002;8.472;2023-01-06T12:11:53;56.68;44.72;77.80;;
37279;Laerm;7458;49.002;8.472;2023-01-06T12:14:34;58.16;44.19;74.41;;
37279;Laerm;7458;49.002;8.472;2023-01-06T12:17:10;54.92;44.35;73.78;;
37279;Laerm;7458;49.002;8.472;2023-01-06T12:22:53;50.57;44.80;68.16;;
37279;Laerm;7458;49.002;8.472;2023-01-06T12:25:32;57.09;45.14;73.98;;
37279;Laerm;7458;49.002;8.472;2023-01-06T12:33:49;57.67;45.17;73.84;;
37279;Laerm;7458;49.002;8.472;2023-01-06T12:39:01;58.09;45.42;74.12;;
37279;Laerm;7458;49.002;8.472;2023-01-06T12:41:35;55.98;44.97;70.09;;
37279;Laerm;7458;49.002;8.472;2023-01-06T12:47:14;50.82;44.76;64.45;;
37279;Laerm;7458;49.002;8.472;2023-01-06T12:50:02;51.71;45.14;67.55;;
37279;Laerm;7458;49.002;8.472;2023-01-06T12:52:49;56.40;45.42;74.16;;
37279;Laerm;7458;49.002;8.472;2023-01-06T12:55:25;54.09;44.65;75.86;;
37279;Laerm;7458;49.002;8.472;2023-01-06T12:58:05;55.43;45.20;72.53;;
37279;Laerm;7458;49.002;8.472;2023-01-06T13:00:51;50.03;45.11;63.78;;
37279;Laerm;7458;49.002;8.472;2023-01-06T13:09:20;52.86;45.07;66.46;;
37279;Laerm;7458;49.002;8.472;2023-01-06T13:12:32;51.83;45.01;70.33;;
37279;Laerm;7458;49.002;8.472;2023-01-06T13:15:27;51.51;44.83;66.50;;
37279;Laerm;7458;49.002;8.472;2023-01-06T13:18:16;52.69;44.31;68.02;;
37279;Laerm;7458;49.002;8.472;2023-01-06T13:21:08;49.86;44.98;65.12;;
37279;Laerm;7458;49.002;8.472;2023-01-06T13:35:27;51.25;45.20;67.46;;
37279;Laerm;7458;49.002;8.472;2023-01-06T13:41:03;64.34;45.20;91.88;;
37279;Laerm;7458;49.002;8.472;2023-01-06T13:43:34;55.16;45.27;68.05;;
37279;Laerm;7458;49.002;8.472;2023-01-06T13:46:08;59.38;47.18;74.41;;
37279;Laerm;7458;49.002;8.472;2023-01-06T13:48:42;59.97;44.73;75.01;;
37279;Laerm;7458;49.002;8.472;2023-01-06T13:51:13;59.51;44.69;75.44;;
37279;Laerm;7458;49.002;8.472;2023-01-06T13:53:44;59.00;44.97;74.35;;
37279;Laerm;7458;49.002;8.472;2023-01-06T13:58:44;59.90;45.77;74.41;;
37279;Laerm;7458;49.002;8.472;2023-01-06T14:01:33;60.35;44.94;74.64;;
37279;Laerm;7458;49.002;8.472;2023-01-06T14:07:06;59.22;44.76;74.45;;
37279;Laerm;7458;49.002;8.472;2023-01-06T14:09:38;57.93;45.33;72.09;;
37279;Laerm;7458;49.002;8.472;2023-01-06T14:12:21;59.13;43.77;74.30;;
37279;Laerm;7458;49.002;8.472;2023-01-06T14:15:18;58.96;44.19;74.56;;
37279;Laerm;7458;49.002;8.472;2023-01-06T14:17:46;60.04;44.35;74.40;;
37279;Laerm;7458;49.002;8.472;2023-01-06T14:20:36;60.05;44.65;74.56;;
37279;Laerm;7458;49.002;8.472;2023-01-06T14:23:24;60.98;45.43;74.97;;
37279;Laerm;7458;49.002;8.472;2023-01-06T14:25:55;59.87;45.30;74.67;;
37279;Laerm;7458;49.002;8.472;2023-01-06T14:28:28;60.32;44.54;74.66;;
37279;Laerm;7458;49.002;8.472;2023-01-06T14:33:57;61.09;44.97;74.76;;
37279;Laerm;7458;49.002;8.472;2023-01-06T14:36:31;61.88;45.27;81.43;;
37279;Laerm;7458;49.002;8.472;2023-01-06T14:39:02;59.76;45.94;74.92;;
37279;Laerm;7458;49.002;8.472;2023-01-06T14:44:20;59.51;44.94;74.80;;
37279;Laerm;7458;49.002;8.472;2023-01-06T14:46:51;60.59;46.28;80.38;;
37279;Laerm;7458;49.002;8.472;2023-01-06T14:49:33;60.05;44.76;74.79;;
37279;Laerm;7458;49.002;8.472;2023-01-06T14:52:11;59.46;45.14;74.71;;
37279;Laerm;7458;49.002;8.472;2023-01-06T14:54:44;59.27;46.20;74.70;;
37279;Laerm;7458;49.002;8.472;2023-01-06T14:57:43;58.06;44.54;74.62;;
37279;Laerm;7458;49.002;8.472;2023-01-06T15:03:16;54.53;44.69;71.16;;
37279;Laerm;7458;49.002;8.472;2023-01-06T15:05:43;55.14;46.05;71.83;;
37279;Laerm;7458;49.002;8.472;2023-01-06T15:10:40;56.24;45.33;75.71;;
37279;Laerm;7458;49.002;8.472;2023-01-06T15:13:22;49.56;44.58;59.92;;
37279;Laerm;7458;49.002;8.472;2023-01-06T15:16:03;63.52;45.69;81.35;;
37279;Laerm;7458;49.002;8.472;2023-01-06T15:18:32;51.82;44.54;65.93;;
37279;Laerm;7458;49.002;8.472;2023-01-06T15:21:00;53.49;45.11;67.17;;
37279;Laerm;7458;49.002;8.472;2023-01-06T15:23:27;56.99;45.63;73.05;;
37279;Laerm;7458;49.002;8.472;2023-01-06T15:25:54;51.00;44.65;67.41;;
37279;Laerm;7458;49.002;8.472;2023-01-06T15:28:32;49.90;44.54;62.34;;
37279;Laerm;7458;49.002;8.472;2023-01-06T15:31:00;48.86;44.19;63.86;;
37279;Laerm;7458;49.002;8.472;2023-01-06T15:33:39;58.37;45.39;74.79;;
37279;Laerm;7458;49.002;8.472;2023-01-06T15:36:07;58.78;43.54;74.92;;
37279;Laerm;7458;49.002;8.472;2023-01-06T15:38:38;51.56;44.15;65.86;;
37279;Laerm;7458;49.002;8.472;2023-01-06T15:41:05;54.19;44.62;76.74;;
37279;Laerm;7458;49.002;8.472;2023-01-06T15:43:51;51.39;43.34;68.91;;
37279;Laerm;7458;49.002;8.472;2023-01-06T15:46:16;59.09;44.69;74.93;;
37279;Laerm;7458;49.002;8.472;2023-01-06T15:48:45;53.39;45.48;68.92;;
37279;Laerm;7458;49.002;8.472;2023-01-06T15:51:17;55.73;43.93;80.78;;
37279;Laerm;7458;49.002;8.472;2023-01-06T15:53:46;52.74;45.39;68.67;;
37279;Laerm;7458;49.002;8.472;2023-01-06T15:56:21;57.74;45.28;77.26;;
37279;Laerm;7458;49.002;8.472;2023-01-06T15:58:52;55.08;44.31;74.28;;
37279;Laerm;7458;49.002;8.472;2023-01-06T16:01:21;52.82;43.63;73.36;;
37279;Laerm;7458;49.002;8.472;2023-01-06T16:03:54;49.46;44.65;66.26;;
37279;Laerm;7458;49.002;8.472;2023-01-06T16:06:33;55.38;44.66;69.27;;
37279;Laerm;7458;49.002;8.472;2023-01-06T16:12:18;53.27;43.68;72.52;;
37279;Laerm;7458;49.002;8.472;2023-01-06T16:14:46;55.32;43.39;73.53;;
37279;Laerm;7458;49.002;8.472;2023-01-06T16:17:30;52.48;41.82;71.11;;
37279;Laerm;7458;49.002;8.472;2023-01-06T16:20:23;58.50;42.47;74.42;;
37279;Laerm;7458;49.002;8.472;2023-01-06T16:22:54;59.12;42.22;74.63;;
37279;Laerm;7458;49.002;8.472;2023-01-06T16:25:25;57.83;42.16;75.05;;
37279;Laerm;7458;49.002;8.472;2023-01-06T16:27:55;58.79;42.35;74.48;;